sensor_id;sensor_type;location;lat;lon;timestamp;P1;durP1;ratioP1;P2;durP2;ratioP2
45806;SDS011;31507;51.494;7.518;2023-05-07T00:01:15;121.32;;;49.97;;
45806;SDS011;31507;51.494;7.518;2023-05-07T00:03:41;99.00;;;46.00;;
45806;SDS011;31507;51.494;7.518;2023-05-07T00:06:06;94.90;;;44.85;;
45806;SDS011;31507;51.494;7.518;2023-05-07T00:08:32;85.35;;;44.15;;
45806;SDS011;31507;51.494;7.518;2023-05-07T00:10:58;66.75;;;37.63;;
45806;SDS011;31507;51.494;7.518;2023-05-07T00:13:23;88.38;;;41.80;;
45806;SDS011;31507;51.494;7.518;2023-05-07T00:15:49;59.45;;;37.83;;
45806;SDS011;31507;51.494;7.518;2023-05-07T00:18:14;88.15;;;42.20;;
45806;SDS011;31507;51.494;7.518;2023-05-07T00:20:40;94.78;;;44.92;;
45806;SDS011;31507;51.494;7.518;2023-05-07T00:23:06;67.40;;;38.67;;
45806;SDS011;31507;51.494;7.518;2023-05-07T00:25:32;85.03;;;43.90;;
45806;SDS011;31507;51.494;7.518;2023-05-07T00:27:57;114.57;;;46.55;;
45806;SDS011;31507;51.494;7.518;2023-05-07T00:30:28;112.32;;;45.72;;
45806;SDS011;31507;51.494;7.518;2023-05-07T00:32:54;96.55;;;43.15;;
45806;SDS011;31507;51.494;7.518;2023-05-07T00:35:19;109.00;;;44.60;;
45806;SDS011;31507;51.494;7.518;2023-05-07T00:37:45;77.30;;;39.88;;
45806;SDS011;31507;51.494;7.518;2023-05-07T00:40:11;89.53;;;43.70;;
45806;SDS011;31507;51.494;7.518;2023-05-07T00:42:36;93.22;;;43.78;;
45806;SDS011;31507;51.494;7.518;2023-05-07T00:45:02;93.93;;;44.55;;
45806;SDS011;31507;51.494;7.518;2023-05-07T00:47:28;85.20;;;42.25;;
45806;SDS011;31507;51.494;7.518;2023-05-07T00:49:54;73.40;;;39.08;;
45806;SDS011;31507;51.494;7.518;2023-05-07T00:52:21;61.30;;;38.08;;
45806;SDS011;31507;51.494;7.518;2023-05-07T00:54:51;89.50;;;42.38;;
45806;SDS011;31507;51.494;7.518;2023-05-07T00:57:17;67.10;;;39.28;;
45806;SDS011;31507;51.494;7.518;2023-05-07T00:59:42;66.55;;;37.97;;
45806;SDS011;31507;51.494;7.518;2023-05-07T01:02:08;90.97;;;43.15;;
45806;SDS011;31507;51.494;7.518;2023-05-07T01:04:34;94.72;;;43.33;;
45806;SDS011;31507;51.494;7.518;2023-05-07T01:07:00;71.53;;;38.92;;
45806;SDS011;31507;51.494;7.518;2023-05-07T01:09:27;78.82;;;38.97;;
45806;SDS011;31507;51.494;7.518;2023-05-07T01:11:53;74.38;;;38.92;;
45806;SDS011;31507;51.494;7.518;2023-05-07T01:14:22;91.93;;;42.75;;
45806;SDS011;31507;51.494;7.518;2023-05-07T01:16:48;63.28;;;36.22;;
45806;SDS011;31507;51.494;7.518;2023-05-07T01:19:16;68.97;;;38.25;;
45806;SDS011;31507;51.494;7.518;2023-05-07T01:21:45;67.97;;;37.58;;
45806;SDS011;31507;51.494;7.518;2023-05-07T01:24:13;139.90;;;48.40;;
45806;SDS011;31507;51.494;7.518;2023-05-07T01:26:39;91.32;;;41.95;;
45806;SDS011;31507;51.494;7.518;2023-05-07T01:29:05;94.65;;;42.70;;
45806;SDS011;31507;51.494;7.518;2023-05-07T01:31:35;74.68;;;39.88;;
45806;SDS011;31507;51.494;7.518;2023-05-07T01:34:02;68.45;;;37.53;;
45806;SDS011;31507;51.494;7.518;2023-05-07T01:36:29;91.90;;;42.08;;
45806;SDS011;31507;51.494;7.518;2023-05-07T01:38:56;99.55;;;42.58;;
45806;SDS011;31507;51.494;7.518;2023-05-07T01:41:23;82.63;;;41.03;;
45806;SDS011;31507;51.494;7.518;2023-05-07T01:43:50;60.28;;;35.15;;
45806;SDS011;31507;51.494;7.518;2023-05-07T01:46:17;90.80;;;41.95;;
45806;SDS011;31507;51.494;7.518;2023-05-07T01:48:44;95.15;;;41.33;;
45806;SDS011;31507;51.494;7.518;2023-05-07T01:51:10;75.72;;;37.67;;
45806;SDS011;31507;51.494;7.518;2023-05-07T01:53:37;127.47;;;44.80;;
45806;SDS011;31507;51.494;7.518;2023-05-07T01:56:03;84.45;;;39.25;;
45806;SDS011;31507;51.494;7.518;2023-05-07T01:58:28;56.63;;;33.78;;
45806;SDS011;31507;51.494;7.518;2023-05-07T02:00:54;73.22;;;39.25;;
45806;SDS011;31507;51.494;7.518;2023-05-07T02:03:20;127.38;;;44.63;;
45806;SDS011;31507;51.494;7.518;2023-05-07T02:05:45;70.35;;;37.50;;
45806;SDS011;31507;51.494;7.518;2023-05-07T02:08:11;103.95;;;42.20;;
45806;SDS011;31507;51.494;7.518;2023-05-07T02:10:37;133.38;;;45.80;;
45806;SDS011;31507;51.494;7.518;2023-05-07T02:13:02;102.07;;;42.90;;
45806;SDS011;31507;51.494;7.518;2023-05-07T02:15:28;94.10;;;39.83;;
45806;SDS011;31507;51.494;7.518;2023-05-07T02:18:00;80.68;;;37.88;;
45806;SDS011;31507;51.494;7.518;2023-05-07T02:22:53;61.55;;;32.22;;
45806;SDS011;31507;51.494;7.518;2023-05-07T02:25:19;72.95;;;35.30;;
45806;SDS011;31507;51.494;7.518;2023-05-07T02:27:44;83.25;;;36.28;;
45806;SDS011;31507;51.494;7.518;2023-05-07T02:30:10;68.85;;;32.50;;
45806;SDS011;31507;51.494;7.518;2023-05-07T02:32:36;87.35;;;37.35;;
45806;SDS011;31507;51.494;7.518;2023-05-07T02:35:02;70.20;;;34.33;;
45806;SDS011;31507;51.494;7.518;2023-05-07T02:37:27;69.85;;;33.03;;
45806;SDS011;31507;51.494;7.518;2023-05-07T02:39:53;79.35;;;35.15;;
45806;SDS011;31507;51.494;7.518;2023-05-07T02:42:18;75.90;;;35.50;;
45806;SDS011;31507;51.494;7.518;2023-05-07T02:44:44;54.38;;;31.13;;
45806;SDS011;31507;51.494;7.518;2023-05-07T02:47:10;88.05;;;36.95;;
45806;SDS011;31507;51.494;7.518;2023-05-07T02:49:37;73.82;;;33.53;;
45806;SDS011;31507;51.494;7.518;2023-05-07T02:52:03;60.72;;;33.60;;
45806;SDS011;31507;51.494;7.518;2023-05-07T02:54:29;53.95;;;30.80;;
45806;SDS011;31507;51.494;7.518;2023-05-07T02:56:55;70.70;;;35.53;;
45806;SDS011;31507;51.494;7.518;2023-05-07T02:59:21;91.32;;;40.22;;
45806;SDS011;31507;51.494;7.518;2023-05-07T03:01:46;98.05;;;42.45;;
45806;SDS011;31507;51.494;7.518;2023-05-07T03:04:13;102.50;;;41.83;;
45806;SDS011;31507;51.494;7.518;2023-05-07T03:06:38;90.93;;;40.78;;
45806;SDS011;31507;51.494;7.518;2023-05-07T03:09:04;103.90;;;43.55;;
45806;SDS011;31507;51.494;7.518;2023-05-07T03:11:30;104.03;;;42.53;;
45806;SDS011;31507;51.494;7.518;2023-05-07T03:13:55;115.43;;;42.30;;
45806;SDS011;31507;51.494;7.518;2023-05-07T03:16:21;65.97;;;35.45;;
45806;SDS011;31507;51.494;7.518;2023-05-07T03:18:46;70.65;;;37.60;;
45806;SDS011;31507;51.494;7.518;2023-05-07T03:21:12;73.93;;;39.33;;
45806;SDS011;31507;51.494;7.518;2023-05-07T03:23:38;94.45;;;44.08;;
45806;SDS011;31507;51.494;7.518;2023-05-07T03:26:03;103.20;;;46.15;;
45806;SDS011;31507;51.494;7.518;2023-05-07T03:28:29;116.07;;;48.28;;
45806;SDS011;31507;51.494;7.518;2023-05-07T03:30:55;105.35;;;46.55;;
45806;SDS011;31507;51.494;7.518;2023-05-07T03:33:21;120.88;;;50.42;;
45806;SDS011;31507;51.494;7.518;2023-05-07T03:35:46;136.73;;;50.75;;
45806;SDS011;31507;51.494;7.518;2023-05-07T03:38:12;131.05;;;51.53;;
45806;SDS011;31507;51.494;7.518;2023-05-07T03:40:37;117.15;;;50.33;;
45806;SDS011;31507;51.494;7.518;2023-05-07T03:43:03;142.55;;;55.95;;
45806;SDS011;31507;51.494;7.518;2023-05-07T03:45:29;151.32;;;59.35;;
45806;SDS011;31507;51.494;7.518;2023-05-07T03:47:54;132.68;;;58.60;;
45806;SDS011;31507;51.494;7.518;2023-05-07T03:50:20;137.57;;;58.92;;
45806;SDS011;31507;51.494;7.518;2023-05-07T03:52:45;151.02;;;60.88;;
45806;SDS011;31507;51.494;7.518;2023-05-07T03:55:11;125.63;;;57.50;;
45806;SDS011;31507;51.494;7.518;2023-05-07T03:57:37;163.95;;;60.95;;
45806;SDS011;31507;51.494;7.518;2023-05-07T04:00:02;129.13;;;55.85;;
45806;SDS011;31507;51.494;7.518;2023-05-07T04:02:29;172.85;;;62.15;;
45806;SDS011;31507;51.494;7.518;2023-05-07T04:04:55;121.57;;;57.25;;
45806;SDS011;31507;51.494;7.518;2023-05-07T04:07:21;152.60;;;60.10;;
45806;SDS011;31507;51.494;7.518;2023-05-07T04:09:47;130.80;;;58.53;;
45806;SDS011;31507;51.494;7.518;2023-05-07T04:12:13;140.00;;;60.25;;
45806;SDS011;31507;51.494;7.518;2023-05-07T04:14:40;203.57;;;66.55;;
45806;SDS011;31507;51.494;7.518;2023-05-07T04:17:05;147.82;;;61.65;;
45806;SDS011;31507;51.494;7.518;2023-05-07T04:19:32;131.48;;;59.53;;
45806;SDS011;31507;51.494;7.518;2023-05-07T04:21:58;165.80;;;63.97;;
45806;SDS011;31507;51.494;7.518;2023-05-07T04:24:24;166.38;;;63.33;;
45806;SDS011;31507;51.494;7.518;2023-05-07T04:26:50;167.73;;;66.40;;
45806;SDS011;31507;51.494;7.518;2023-05-07T04:29:16;179.35;;;62.28;;
45806;SDS011;31507;51.494;7.518;2023-05-07T04:31:42;141.63;;;61.33;;
45806;SDS011;31507;51.494;7.518;2023-05-07T04:34:09;146.00;;;61.58;;
45806;SDS011;31507;51.494;7.518;2023-05-07T04:36:36;138.13;;;58.45;;
45806;SDS011;31507;51.494;7.518;2023-05-07T04:39:03;155.07;;;62.22;;
45806;SDS011;31507;51.494;7.518;2023-05-07T04:41:28;184.13;;;62.70;;
45806;SDS011;31507;51.494;7.518;2023-05-07T04:43:54;145.18;;;57.95;;
45806;SDS011;31507;51.494;7.518;2023-05-07T04:46:20;139.63;;;57.38;;
45806;SDS011;31507;51.494;7.518;2023-05-07T04:48:46;119.45;;;54.28;;
45806;SDS011;31507;51.494;7.518;2023-05-07T04:51:11;110.63;;;53.20;;
45806;SDS011;31507;51.494;7.518;2023-05-07T04:53:37;113.28;;;53.35;;
45806;SDS011;31507;51.494;7.518;2023-05-07T04:56:03;83.90;;;46.75;;
45806;SDS011;31507;51.494;7.518;2023-05-07T04:58:29;105.40;;;50.72;;
45806;SDS011;31507;51.494;7.518;2023-05-07T05:00:56;117.05;;;51.17;;
45806;SDS011;31507;51.494;7.518;2023-05-07T05:03:23;119.57;;;52.28;;
45806;SDS011;31507;51.494;7.518;2023-05-07T05:05:49;97.25;;;48.85;;
45806;SDS011;31507;51.494;7.518;2023-05-07T05:08:16;107.28;;;49.78;;
45806;SDS011;31507;51.494;7.518;2023-05-07T05:10:42;100.00;;;47.92;;
45806;SDS011;31507;51.494;7.518;2023-05-07T05:13:08;103.57;;;46.88;;
45806;SDS011;31507;51.494;7.518;2023-05-07T05:15:34;106.80;;;48.55;;
45806;SDS011;31507;51.494;7.518;2023-05-07T05:18:00;75.40;;;38.42;;
45806;SDS011;31507;51.494;7.518;2023-05-07T05:20:26;58.40;;;33.55;;
45806;SDS011;31507;51.494;7.518;2023-05-07T05:22:51;63.53;;;34.55;;
45806;SDS011;31507;51.494;7.518;2023-05-07T05:25:17;60.13;;;33.45;;
45806;SDS011;31507;51.494;7.518;2023-05-07T05:27:43;53.80;;;30.05;;
45806;SDS011;31507;51.494;7.518;2023-05-07T05:30:08;54.17;;;30.20;;
45806;SDS011;31507;51.494;7.518;2023-05-07T05:32:34;55.60;;;31.25;;
45806;SDS011;31507;51.494;7.518;2023-05-07T05:35:00;39.88;;;24.67;;
45806;SDS011;31507;51.494;7.518;2023-05-07T05:37:25;47.47;;;26.30;;
45806;SDS011;31507;51.494;7.518;2023-05-07T05:39:52;50.25;;;28.63;;
45806;SDS011;31507;51.494;7.518;2023-05-07T05:42:19;55.05;;;28.83;;
45806;SDS011;31507;51.494;7.518;2023-05-07T05:44:45;47.65;;;25.55;;
45806;SDS011;31507;51.494;7.518;2023-05-07T05:47:10;35.30;;;23.08;;
45806;SDS011;31507;51.494;7.518;2023-05-07T05:49:36;36.83;;;22.48;;
45806;SDS011;31507;51.494;7.518;2023-05-07T05:52:02;36.75;;;23.48;;
45806;SDS011;31507;51.494;7.518;2023-05-07T05:54:28;31.92;;;21.02;;
45806;SDS011;31507;51.494;7.518;2023-05-07T05:56:53;30.92;;;19.10;;
45806;SDS011;31507;51.494;7.518;2023-05-07T05:59:19;25.83;;;17.10;;
45806;SDS011;31507;51.494;7.518;2023-05-07T06:01:45;26.42;;;16.50;;
45806;SDS011;31507;51.494;7.518;2023-05-07T06:04:10;24.65;;;15.48;;
45806;SDS011;31507;51.494;7.518;2023-05-07T06:06:36;17.13;;;12.77;;
45806;SDS011;31507;51.494;7.518;2023-05-07T06:09:02;15.95;;;11.55;;
45806;SDS011;31507;51.494;7.518;2023-05-07T06:11:27;14.48;;;10.43;;
45806;SDS011;31507;51.494;7.518;2023-05-07T06:13:53;18.13;;;9.45;;
45806;SDS011;31507;51.494;7.518;2023-05-07T06:16:19;15.95;;;9.48;;
45806;SDS011;31507;51.494;7.518;2023-05-07T06:18:45;11.65;;;10.00;;
45806;SDS011;31507;51.494;7.518;2023-05-07T06:21:11;15.60;;;8.60;;
45806;SDS011;31507;51.494;7.518;2023-05-07T06:23:38;28.17;;;20.95;;
45806;SDS011;31507;51.494;7.518;2023-05-07T06:26:05;15.35;;;6.68;;
45806;SDS011;31507;51.494;7.518;2023-05-07T06:28:31;9.25;;;5.95;;
45806;SDS011;31507;51.494;7.518;2023-05-07T06:33:39;12.65;;;6.13;;
45806;SDS011;31507;51.494;7.518;2023-05-07T06:36:05;8.02;;;4.50;;
45806;SDS011;31507;51.494;7.518;2023-05-07T06:38:31;8.65;;;4.75;;
45806;SDS011;31507;51.494;7.518;2023-05-07T06:40:57;7.95;;;4.72;;
45806;SDS011;31507;51.494;7.518;2023-05-07T06:43:22;12.75;;;8.00;;
45806;SDS011;31507;51.494;7.518;2023-05-07T06:45:48;7.28;;;4.80;;
45806;SDS011;31507;51.494;7.518;2023-05-07T06:48:13;7.97;;;5.40;;
45806;SDS011;31507;51.494;7.518;2023-05-07T06:50:39;7.85;;;5.35;;
45806;SDS011;31507;51.494;7.518;2023-05-07T06:53:05;6.72;;;5.10;;
45806;SDS011;31507;51.494;7.518;2023-05-07T06:55:30;6.55;;;4.55;;
45806;SDS011;31507;51.494;7.518;2023-05-07T06:57:56;7.35;;;4.10;;
45806;SDS011;31507;51.494;7.518;2023-05-07T07:00:25;8.20;;;5.50;;
45806;SDS011;31507;51.494;7.518;2023-05-07T07:02:52;7.63;;;6.18;;
45806;SDS011;31507;51.494;7.518;2023-05-07T07:05:18;12.73;;;6.38;;
45806;SDS011;31507;51.494;7.518;2023-05-07T07:07:44;7.93;;;5.97;;
45806;SDS011;31507;51.494;7.518;2023-05-07T07:10:09;9.40;;;5.85;;
45806;SDS011;31507;51.494;7.518;2023-05-07T07:12:35;7.38;;;5.63;;
45806;SDS011;31507;51.494;7.518;2023-05-07T07:15:00;8.25;;;5.70;;
45806;SDS011;31507;51.494;7.518;2023-05-07T07:17:27;10.23;;;5.93;;
45806;SDS011;31507;51.494;7.518;2023-05-07T07:19:53;10.00;;;5.82;;
45806;SDS011;31507;51.494;7.518;2023-05-07T07:22:19;9.77;;;6.53;;
45806;SDS011;31507;51.494;7.518;2023-05-07T07:24:44;6.63;;;5.45;;
45806;SDS011;31507;51.494;7.518;2023-05-07T07:27:10;8.38;;;5.68;;
45806;SDS011;31507;51.494;7.518;2023-05-07T07:29:36;7.80;;;5.68;;
45806;SDS011;31507;51.494;7.518;2023-05-07T07:32:01;6.25;;;5.18;;
45806;SDS011;31507;51.494;7.518;2023-05-07T07:34:27;11.05;;;5.57;;
45806;SDS011;31507;51.494;7.518;2023-05-07T07:36:52;8.02;;;6.32;;
45806;SDS011;31507;51.494;7.518;2023-05-07T07:39:18;6.55;;;5.82;;
45806;SDS011;31507;51.494;7.518;2023-05-07T07:41:44;7.25;;;5.70;;
45806;SDS011;31507;51.494;7.518;2023-05-07T07:44:09;7.38;;;5.95;;
45806;SDS011;31507;51.494;7.518;2023-05-07T07:46:37;12.68;;;5.90;;
45806;SDS011;31507;51.494;7.518;2023-05-07T07:49:03;6.47;;;5.72;;
45806;SDS011;31507;51.494;7.518;2023-05-07T07:51:29;9.38;;;6.15;;
45806;SDS011;31507;51.494;7.518;2023-05-07T07:53:55;9.20;;;5.45;;
45806;SDS011;31507;51.494;7.518;2023-05-07T07:56:22;11.25;;;5.93;;
45806;SDS011;31507;51.494;7.518;2023-05-07T07:58:48;6.65;;;5.22;;
45806;SDS011;31507;51.494;7.518;2023-05-07T08:01:14;8.00;;;5.22;;
45806;SDS011;31507;51.494;7.518;2023-05-07T08:03:39;7.95;;;5.38;;
45806;SDS011;31507;51.494;7.518;2023-05-07T08:06:05;6.47;;;5.88;;
45806;SDS011;31507;51.494;7.518;2023-05-07T08:08:31;7.82;;;5.80;;
45806;SDS011;31507;51.494;7.518;2023-05-07T08:10:56;8.60;;;6.30;;
45806;SDS011;31507;51.494;7.518;2023-05-07T08:13:22;11.82;;;6.68;;
45806;SDS011;31507;51.494;7.518;2023-05-07T08:15:48;8.40;;;6.80;;
45806;SDS011;31507;51.494;7.518;2023-05-07T08:18:13;8.52;;;7.20;;
45806;SDS011;31507;51.494;7.518;2023-05-07T08:20:40;12.90;;;8.13;;
45806;SDS011;31507;51.494;7.518;2023-05-07T08:23:06;9.57;;;7.20;;
45806;SDS011;31507;51.494;7.518;2023-05-07T08:25:35;8.55;;;7.35;;
45806;SDS011;31507;51.494;7.518;2023-05-07T08:28:01;11.68;;;8.25;;
45806;SDS011;31507;51.494;7.518;2023-05-07T08:30:26;12.77;;;7.57;;
45806;SDS011;31507;51.494;7.518;2023-05-07T08:32:52;10.57;;;7.90;;
45806;SDS011;31507;51.494;7.518;2023-05-07T08:35:18;9.75;;;7.22;;
45806;SDS011;31507;51.494;7.518;2023-05-07T08:37:46;12.52;;;7.63;;
45806;SDS011;31507;51.494;7.518;2023-05-07T08:40:12;9.23;;;8.10;;
45806;SDS011;31507;51.494;7.518;2023-05-07T08:42:37;9.32;;;7.72;;
45806;SDS011;31507;51.494;7.518;2023-05-07T08:45:05;11.25;;;8.43;;
45806;SDS011;31507;51.494;7.518;2023-05-07T08:47:39;13.73;;;7.55;;
45806;SDS011;31507;51.494;7.518;2023-05-07T08:50:09;10.27;;;7.70;;
45806;SDS011;31507;51.494;7.518;2023-05-07T08:52:35;14.60;;;8.70;;
45806;SDS011;31507;51.494;7.518;2023-05-07T08:55:02;10.10;;;8.15;;
45806;SDS011;31507;51.494;7.518;2023-05-07T08:57:28;12.38;;;9.20;;
45806;SDS011;31507;51.494;7.518;2023-05-07T08:59:54;9.60;;;8.70;;
45806;SDS011;31507;51.494;7.518;2023-05-07T09:02:20;11.10;;;8.70;;
45806;SDS011;31507;51.494;7.518;2023-05-07T09:04:45;11.00;;;8.68;;
45806;SDS011;31507;51.494;7.518;2023-05-07T09:07:11;9.88;;;8.88;;
45806;SDS011;31507;51.494;7.518;2023-05-07T09:09:37;10.80;;;8.93;;
45806;SDS011;31507;51.494;7.518;2023-05-07T09:12:02;9.95;;;8.68;;
45806;SDS011;31507;51.494;7.518;2023-05-07T09:14:29;10.10;;;8.48;;
45806;SDS011;31507;51.494;7.518;2023-05-07T09:16:55;10.77;;;8.85;;
45806;SDS011;31507;51.494;7.518;2023-05-07T09:19:25;10.68;;;7.90;;
45806;SDS011;31507;51.494;7.518;2023-05-07T09:22:02;9.13;;;8.23;;
45806;SDS011;31507;51.494;7.518;2023-05-07T09:24:29;8.23;;;7.43;;
45806;SDS011;31507;51.494;7.518;2023-05-07T09:26:59;9.95;;;7.68;;
45806;SDS011;31507;51.494;7.518;2023-05-07T09:29:26;9.80;;;8.05;;
45806;SDS011;31507;51.494;7.518;2023-05-07T09:31:54;14.45;;;8.15;;
45806;SDS011;31507;51.494;7.518;2023-05-07T09:34:19;12.70;;;8.55;;
45806;SDS011;31507;51.494;7.518;2023-05-07T09:36:45;15.85;;;8.15;;
45806;SDS011;31507;51.494;7.518;2023-05-07T09:39:11;12.23;;;8.60;;
45806;SDS011;31507;51.494;7.518;2023-05-07T09:41:44;10.60;;;8.48;;
45806;SDS011;31507;51.494;7.518;2023-05-07T09:44:14;10.40;;;7.70;;
45806;SDS011;31507;51.494;7.518;2023-05-07T09:46:41;8.18;;;7.38;;
45806;SDS011;31507;51.494;7.518;2023-05-07T09:49:12;10.98;;;8.32;;
45806;SDS011;31507;51.494;7.518;2023-05-07T09:51:49;9.27;;;8.27;;
45806;SDS011;31507;51.494;7.518;2023-05-07T09:54:16;9.05;;;8.13;;
45806;SDS011;31507;51.494;7.518;2023-05-07T09:56:43;10.60;;;7.63;;
45806;SDS011;31507;51.494;7.518;2023-05-07T09:59:10;8.43;;;7.10;;
45806;SDS011;31507;51.494;7.518;2023-05-07T10:01:38;11.02;;;7.90;;
45806;SDS011;31507;51.494;7.518;2023-05-07T10:04:07;9.20;;;8.05;;
45806;SDS011;31507;51.494;7.518;2023-05-07T10:06:36;10.73;;;9.07;;
45806;SDS011;31507;51.494;7.518;2023-05-07T10:09:03;8.98;;;8.07;;
45806;SDS011;31507;51.494;7.518;2023-05-07T10:11:33;8.73;;;7.65;;
45806;SDS011;31507;51.494;7.518;2023-05-07T10:14:00;9.68;;;8.27;;
45806;SDS011;31507;51.494;7.518;2023-05-07T10:16:27;9.30;;;8.00;;
45806;SDS011;31507;51.494;7.518;2023-05-07T10:18:58;13.25;;;7.63;;
45806;SDS011;31507;51.494;7.518;2023-05-07T10:21:24;10.18;;;7.78;;
45806;SDS011;31507;51.494;7.518;2023-05-07T10:23:57;8.70;;;7.25;;
45806;SDS011;31507;51.494;7.518;2023-05-07T10:26:44;10.20;;;7.50;;
45806;SDS011;31507;51.494;7.518;2023-05-07T10:35:04;8.88;;;6.97;;
45806;SDS011;31507;51.494;7.518;2023-05-07T10:37:35;11.23;;;5.38;;
45806;SDS011;31507;51.494;7.518;2023-05-07T10:40:01;6.13;;;5.53;;
45806;SDS011;31507;51.494;7.518;2023-05-07T10:42:27;8.82;;;6.55;;
45806;SDS011;31507;51.494;7.518;2023-05-07T10:44:53;7.20;;;5.97;;
45806;SDS011;31507;51.494;7.518;2023-05-07T10:47:19;5.82;;;4.78;;
45806;SDS011;31507;51.494;7.518;2023-05-07T10:52:10;8.82;;;7.53;;
45806;SDS011;31507;51.494;7.518;2023-05-07T10:54:40;15.35;;;8.18;;
45806;SDS011;31507;51.494;7.518;2023-05-07T11:00:01;7.85;;;6.63;;
45806;SDS011;31507;51.494;7.518;2023-05-07T11:03:10;7.32;;;6.53;;
45806;SDS011;31507;51.494;7.518;2023-05-07T11:05:26;18.48;;;9.15;;
45806;SDS011;31507;51.494;7.518;2023-05-07T11:07:55;8.38;;;7.45;;
45806;SDS011;31507;51.494;7.518;2023-05-07T11:10:21;11.48;;;6.93;;
45806;SDS011;31507;51.494;7.518;2023-05-07T11:12:47;8.93;;;7.35;;
45806;SDS011;31507;51.494;7.518;2023-05-07T11:15:14;8.02;;;6.55;;
45806;SDS011;31507;51.494;7.518;2023-05-07T11:26:06;7.03;;;5.82;;
45806;SDS011;31507;51.494;7.518;2023-05-07T11:28:37;12.32;;;7.50;;
45806;SDS011;31507;51.494;7.518;2023-05-07T11:31:03;9.00;;;8.10;;
45806;SDS011;31507;51.494;7.518;2023-05-07T11:33:30;11.80;;;8.10;;
45806;SDS011;31507;51.494;7.518;2023-05-07T11:35:57;14.07;;;9.20;;
45806;SDS011;31507;51.494;7.518;2023-05-07T11:38:23;9.48;;;7.88;;
45806;SDS011;31507;51.494;7.518;2023-05-07T11:40:50;12.43;;;8.48;;
45806;SDS011;31507;51.494;7.518;2023-05-07T11:43:16;10.05;;;8.85;;
45806;SDS011;31507;51.494;7.518;2023-05-07T11:45:42;14.95;;;8.80;;
45806;SDS011;31507;51.494;7.518;2023-05-07T11:48:07;11.02;;;8.07;;
45806;SDS011;31507;51.494;7.518;2023-05-07T11:50:33;11.50;;;9.68;;
45806;SDS011;31507;51.494;7.518;2023-05-07T11:52:59;13.25;;;8.77;;
45806;SDS011;31507;51.494;7.518;2023-05-07T11:55:24;11.60;;;7.53;;
45806;SDS011;31507;51.494;7.518;2023-05-07T11:57:51;10.88;;;7.72;;
45806;SDS011;31507;51.494;7.518;2023-05-07T12:00:16;8.65;;;6.57;;
45806;SDS011;31507;51.494;7.518;2023-05-07T12:02:43;9.20;;;7.97;;
45806;SDS011;31507;51.494;7.518;2023-05-07T12:05:10;13.00;;;7.90;;
45806;SDS011;31507;51.494;7.518;2023-05-07T12:07:36;9.40;;;6.78;;
45806;SDS011;31507;51.494;7.518;2023-05-07T12:10:05;7.70;;;5.78;;
45806;SDS011;31507;51.494;7.518;2023-05-07T12:12:37;9.23;;;7.28;;
45806;SDS011;31507;51.494;7.518;2023-05-07T12:15:07;7.93;;;6.82;;
45806;SDS011;31507;51.494;7.518;2023-05-07T12:17:33;9.30;;;7.35;;
45806;SDS011;31507;51.494;7.518;2023-05-07T12:19:58;9.48;;;7.97;;
45806;SDS011;31507;51.494;7.518;2023-05-07T12:22:25;10.27;;;8.40;;
45806;SDS011;31507;51.494;7.518;2023-05-07T12:24:57;12.93;;;7.97;;
45806;SDS011;31507;51.494;7.518;2023-05-07T12:27:23;11.23;;;6.77;;
45806;SDS011;31507;51.494;7.518;2023-05-07T12:29:50;9.77;;;6.90;;
45806;SDS011;31507;51.494;7.518;2023-05-07T12:32:16;9.82;;;6.90;;
45806;SDS011;31507;51.494;7.518;2023-05-07T12:34:43;10.05;;;7.80;;
45806;SDS011;31507;51.494;7.518;2023-05-07T12:37:09;12.00;;;6.80;;
45806;SDS011;31507;51.494;7.518;2023-05-07T12:39:35;9.77;;;6.32;;
45806;SDS011;31507;51.494;7.518;2023-05-07T12:42:01;10.60;;;6.50;;
45806;SDS011;31507;51.494;7.518;2023-05-07T12:44:33;11.52;;;6.32;;
45806;SDS011;31507;51.494;7.518;2023-05-07T12:47:02;9.17;;;6.37;;
45806;SDS011;31507;51.494;7.518;2023-05-07T12:49:28;6.35;;;5.50;;
45806;SDS011;31507;51.494;7.518;2023-05-07T12:51:54;9.38;;;6.28;;
45806;SDS011;31507;51.494;7.518;2023-05-07T12:54:29;9.70;;;6.05;;
45806;SDS011;31507;51.494;7.518;2023-05-07T12:57:06;7.45;;;5.88;;
45806;SDS011;31507;51.494;7.518;2023-05-07T12:59:37;6.32;;;5.72;;
45806;SDS011;31507;51.494;7.518;2023-05-07T13:02:07;5.72;;;4.68;;
45806;SDS011;31507;51.494;7.518;2023-05-07T13:04:33;6.60;;;4.50;;
45806;SDS011;31507;51.494;7.518;2023-05-07T13:07:00;7.70;;;5.13;;
45806;SDS011;31507;51.494;7.518;2023-05-07T13:09:26;6.38;;;4.40;;
45806;SDS011;31507;51.494;7.518;2023-05-07T13:11:54;5.82;;;4.50;;
45806;SDS011;31507;51.494;7.518;2023-05-07T13:14:20;5.22;;;4.70;;
45806;SDS011;31507;51.494;7.518;2023-05-07T13:16:46;6.40;;;5.15;;
45806;SDS011;31507;51.494;7.518;2023-05-07T13:19:12;7.93;;;5.25;;
45806;SDS011;31507;51.494;7.518;2023-05-07T13:21:37;5.18;;;4.47;;
45806;SDS011;31507;51.494;7.518;2023-05-07T13:24:03;7.00;;;5.05;;
45806;SDS011;31507;51.494;7.518;2023-05-07T13:26:29;7.13;;;5.03;;
45806;SDS011;31507;51.494;7.518;2023-05-07T13:28:56;9.68;;;5.20;;
45806;SDS011;31507;51.494;7.518;2023-05-07T13:31:22;8.07;;;5.30;;
45806;SDS011;31507;51.494;7.518;2023-05-07T13:33:47;7.40;;;5.32;;
45806;SDS011;31507;51.494;7.518;2023-05-07T13:36:13;8.63;;;5.70;;
45806;SDS011;31507;51.494;7.518;2023-05-07T13:38:39;9.13;;;6.18;;
45806;SDS011;31507;51.494;7.518;2023-05-07T13:41:05;6.93;;;6.22;;
45806;SDS011;31507;51.494;7.518;2023-05-07T13:43:31;10.10;;;6.60;;
45806;SDS011;31507;51.494;7.518;2023-05-07T13:46:02;9.63;;;6.70;;
45806;SDS011;31507;51.494;7.518;2023-05-07T13:48:28;9.20;;;6.13;;
45806;SDS011;31507;51.494;7.518;2023-05-07T13:50:53;11.35;;;6.38;;
45806;SDS011;31507;51.494;7.518;2023-05-07T13:53:19;7.88;;;5.95;;
45806;SDS011;31507;51.494;7.518;2023-05-07T13:55:45;7.97;;;6.30;;
45806;SDS011;31507;51.494;7.518;2023-05-07T13:58:10;7.60;;;5.90;;
45806;SDS011;31507;51.494;7.518;2023-05-07T14:00:36;7.63;;;6.35;;
45806;SDS011;31507;51.494;7.518;2023-05-07T14:03:03;8.40;;;6.97;;
45806;SDS011;31507;51.494;7.518;2023-05-07T14:05:30;9.82;;;7.20;;
45806;SDS011;31507;51.494;7.518;2023-05-07T14:07:59;11.43;;;7.38;;
45806;SDS011;31507;51.494;7.518;2023-05-07T14:10:24;11.18;;;7.50;;
45806;SDS011;31507;51.494;7.518;2023-05-07T14:12:50;10.57;;;7.70;;
45806;SDS011;31507;51.494;7.518;2023-05-07T14:15:17;11.90;;;7.60;;
45806;SDS011;31507;51.494;7.518;2023-05-07T14:17:43;8.82;;;7.80;;
45806;SDS011;31507;51.494;7.518;2023-05-07T14:20:09;11.55;;;7.82;;
45806;SDS011;31507;51.494;7.518;2023-05-07T14:22:35;10.50;;;8.00;;
45806;SDS011;31507;51.494;7.518;2023-05-07T14:25:01;8.82;;;7.32;;
45806;SDS011;31507;51.494;7.518;2023-05-07T14:27:27;12.73;;;7.38;;
45806;SDS011;31507;51.494;7.518;2023-05-07T14:29:52;10.18;;;7.25;;
45806;SDS011;31507;51.494;7.518;2023-05-07T14:32:18;9.77;;;7.07;;
45806;SDS011;31507;51.494;7.518;2023-05-07T14:34:44;7.55;;;6.60;;
45806;SDS011;31507;51.494;7.518;2023-05-07T14:37:10;8.27;;;7.00;;
45806;SDS011;31507;51.494;7.518;2023-05-07T14:39:36;8.30;;;7.28;;
45806;SDS011;31507;51.494;7.518;2023-05-07T14:42:01;8.90;;;6.97;;
45806;SDS011;31507;51.494;7.518;2023-05-07T14:44:27;11.18;;;7.60;;
45806;SDS011;31507;51.494;7.518;2023-05-07T14:46:53;8.68;;;5.90;;
45806;SDS011;31507;51.494;7.518;2023-05-07T14:49:19;6.22;;;5.13;;
45806;SDS011;31507;51.494;7.518;2023-05-07T14:51:45;6.47;;;5.25;;